Terminal Aerodrome Forecast
Issued by NWS

Home | Current Version | Previous Version | Text Only | Print | Product List | Glossary On
Versions: 1 2 3 4 5 6 7 8 9 10 11 12
000
FTUS42 KTAE 050533
TAFABY
TAF
KABY 050533Z 0506/0606 09004KT P6SM SKC
     FM051600 08011KT P6SM FEW060 SCT250
     FM052200 09007KT P6SM FEW250=

USA.gov is the U.S. government's official web portal to all federal, state and local government web resources and services.